Time;durP1;ratioP1;P1;durP2;ratioP2;P2;SDS_P1;SDS_P2;PMS_P1;PMS_P2;Temp;Humidity;BMP_temperature;BMP_pressure;BME280_temperature;BME280_humidity;BME280_pressure;Samples;Min_cycle;Max_cycle;Signal;HPM_P1;HPM_P2
2022/05/19 00:01:37;;;;;;;38.70;28.27;;;;;;;-145.18;100.00;60484.78;5038186;28;20102;-67
2022/05/19 00:04:03;;;;;;;38.30;27.77;;;;;;;-145.18;100.00;60484.78;5049516;28;20473;-67
2022/05/19 00:06:29;;;;;;;43.60;29.85;;;;;;;-145.18;100.00;60484.78;5034184;28;20037;-67
2022/05/19 00:08:54;;;;;;;40.25;29.67;;;;;;;-145.18;100.00;60484.78;5031420;28;20119;-67
2022/05/19 00:11:27;;;;;;;45.10;30.10;;;;;;;-145.18;100.00;60484.78;5037425;28;20037;-67
2022/05/19 00:13:52;;;;;;;44.70;31.38;;;;;;;-145.18;100.00;60484.78;5037163;28;20091;-67
2022/05/19 00:16:17;;;;;;;49.53;33.20;;;;;;;-145.18;100.00;60484.78;5040879;28;20052;-67
2022/05/19 00:18:43;;;;;;;46.50;35.13;;;;;;;-145.18;100.00;60484.78;5036703;28;20122;-67
2022/05/19 00:21:08;;;;;;;48.22;35.50;;;;;;;-145.18;100.00;60484.78;5043609;28;20112;-67
2022/05/19 00:23:34;;;;;;;45.83;33.38;;;;;;;-145.18;100.00;60484.78;5049860;28;20424;-67
2022/05/19 00:25:59;;;;;;;47.67;33.95;;;;;;;-145.18;100.00;60484.78;5034795;28;20032;-67
2022/05/19 00:28:25;;;;;;;49.47;34.80;;;;;;;-145.18;100.00;60484.78;5033225;28;20060;-67
2022/05/19 00:30:50;;;;;;;52.42;35.97;;;;;;;-145.18;100.00;60484.78;5039618;28;20086;-67
2022/05/19 00:33:16;;;;;;;47.47;33.97;;;;;;;-145.18;100.00;60484.78;5054390;28;20072;-67
2022/05/19 00:35:41;;;;;;;51.65;37.33;;;;;;;-145.18;100.00;60484.78;5044453;28;20104;-67
2022/05/19 00:38:08;;;;;;;52.42;37.80;;;;;;;-145.18;100.00;60484.78;5049063;28;20025;-67
2022/05/19 00:40:34;;;;;;;56.70;38.25;;;;;;;-145.18;100.00;60484.78;5039108;28;20029;-67
2022/05/19 00:43:00;;;;;;;59.55;41.15;;;;;;;-145.18;100.00;60484.78;5036483;28;20033;-67
2022/05/19 00:45:37;;;;;;;58.78;41.92;;;;;;;-145.18;100.00;60484.78;5044917;28;20069;-67
2022/05/19 00:48:19;;;;;;;57.90;40.35;;;;;;;-145.18;100.00;60484.78;5048665;28;20025;-67
2022/05/19 00:50:50;;;;;;;;;;;;;;;-145.18;100.00;60484.78;5048983;28;20029;-67
2022/05/19 00:53:31;;;;;;;49.20;37.53;;;;;;;-145.18;100.00;60484.78;5036343;28;19928;-67
2022/05/19 00:56:01;;;;;;;52.05;35.92;;;;;;;-145.18;100.00;60484.78;5037527;28;20691;-67
2022/05/19 00:58:40;;;;;;;52.45;36.45;;;;;;;-145.18;100.00;60484.78;5044664;28;20082;-67
2022/05/19 01:01:06;;;;;;;54.08;39.70;;;;;;;-145.18;100.00;60484.78;5045485;28;20167;-67
2022/05/19 01:03:40;;;;;;;53.83;41.58;;;;;;;-145.18;100.00;60484.78;5040454;28;20036;-67
2022/05/19 01:06:19;;;;;;;59.15;41.97;;;;;;;-145.18;100.00;60484.78;5046125;28;20033;-67
2022/05/19 01:09:05;;;;;;;55.55;40.53;;;;;;;-145.18;100.00;60484.78;5038594;28;20029;-67
2022/05/19 01:11:31;;;;;;;57.60;42.05;;;;;;;-145.18;100.00;60484.78;5036574;28;20029;-67
2022/05/19 01:13:57;;;;;;;57.53;43.25;;;;;;;-145.18;100.00;60484.78;5047879;28;20420;-67
2022/05/19 01:16:23;;;;;;;64.00;44.83;;;;;;;-145.18;100.00;60484.78;5040999;28;20033;-67
2022/05/19 01:18:50;;;;;;;68.05;47.83;;;;;;;-145.18;100.00;60484.78;5046741;28;20493;-67
2022/05/19 01:21:19;;;;;;;63.92;45.72;;;;;;;-145.18;100.00;60484.78;5039306;28;20028;-67
2022/05/19 01:24:01;;;;;;;65.50;46.60;;;;;;;-145.18;100.00;60484.78;5043421;28;20025;-67
2022/05/19 01:26:27;;;;;;;63.67;46.45;;;;;;;-145.18;100.00;60484.78;5047123;28;20036;-67
2022/05/19 01:28:52;;;;;;;68.15;48.88;;;;;;;-145.18;100.00;60484.78;5038266;28;20033;-67
2022/05/19 01:31:28;;;;;;;73.15;48.92;;;;;;;-145.18;100.00;60484.78;5042604;28;20729;-67
2022/05/19 01:33:54;;;;;;;71.78;49.70;;;;;;;-145.18;100.00;60484.78;5040076;28;20388;-67
2022/05/19 01:36:20;;;;;;;73.95;50.45;;;;;;;-145.18;100.00;60484.78;5038636;28;20108;-67
2022/05/19 01:38:45;;;;;;;70.70;50.30;;;;;;;-145.18;100.00;60484.78;5037887;28;20108;-67
2022/05/19 01:41:24;;;;;;;80.18;54.65;;;;;;;-145.18;100.00;60484.78;5046076;28;20536;-67
2022/05/19 01:44:17;;;;;;;82.00;54.05;;;;;;;-145.18;100.00;60484.78;5039101;28;20025;-67
2022/05/19 01:46:45;;;;;;;71.63;49.83;;;;;;;-145.18;100.00;60484.78;5035794;28;20033;-68
2022/05/19 01:49:26;;;;;;;67.35;47.88;;;;;;;-145.18;100.00;60484.78;5044583;28;20095;-67
2022/05/19 01:52:04;;;;;;;66.50;46.65;;;;;;;-145.18;100.00;60484.78;5040711;28;20024;-67
2022/05/19 01:55:01;;;;;;;65.45;47.70;;;;;;;-145.18;100.00;60484.78;5042456;28;20877;-67
2022/05/19 01:57:34;;;;;;;68.50;48.08;;;;;;;-145.18;100.00;60484.78;5042246;28;20416;-68
2022/05/19 02:00:18;;;;;;;65.28;45.60;;;;;;;-145.18;100.00;60484.78;5039938;28;20476;-67
2022/05/19 02:03:15;;;;;;;58.25;44.30;;;;;;;-145.18;100.00;60484.78;5040806;28;20040;-67
2022/05/19 02:05:59;;;;;;;59.67;42.15;;;;;;;-145.18;100.00;60484.78;5035191;28;20042;-67
2022/05/19 02:08:33;;;;;;;58.42;43.08;;;;;;;-145.18;100.00;60484.78;5037199;28;20095;-68
2022/05/19 02:11:02;;;;;;;57.00;41.33;;;;;;;-145.18;100.00;60484.78;5033739;28;20037;-68
2022/05/19 02:13:30;;;;;;;55.40;42.25;;;;;;;-145.18;100.00;60484.78;5036043;28;20049;-67
2022/05/19 02:15:58;;;;;;;54.42;41.30;;;;;;;-145.18;100.00;60484.78;5032296;28;20022;-68
2022/05/19 02:18:25;;;;;;;52.03;40.15;;;;;;;-145.18;100.00;60484.78;5047349;28;20053;-67
2022/05/19 02:20:53;;;;;;;55.95;40.42;;;;;;;-145.18;100.00;60484.78;5037461;28;20068;-68
2022/05/19 02:23:19;;;;;;;52.53;41.03;;;;;;;-145.18;100.00;60484.78;5037790;28;20021;-67
2022/05/19 02:25:47;;;;;;;53.65;41.20;;;;;;;-145.18;100.00;60484.78;5034120;28;20548;-68
2022/05/19 02:28:36;;;;;;;51.67;40.17;;;;;;;-145.18;100.00;60484.78;5039052;28;20511;-67
2022/05/19 02:31:02;;;;;;;50.08;38.30;;;;;;;-145.18;100.00;60484.78;5034359;28;20045;-67
2022/05/19 02:33:28;;;;;;;49.83;37.05;;;;;;;-145.18;100.00;60484.78;5043526;28;20021;-67
2022/05/19 02:35:53;;;;;;;47.50;35.72;;;;;;;-145.18;100.00;60484.78;5047665;28;20025;-68
2022/05/19 02:38:20;;;;;;;43.40;34.83;;;;;;;-145.18;100.00;60484.78;5038797;28;20056;-67
2022/05/19 02:40:46;;;;;;;47.70;36.08;;;;;;;-145.18;100.00;60484.78;5041023;28;20490;-67
2022/05/19 02:43:12;;;;;;;45.15;33.72;;;;;;;-145.18;100.00;60484.78;5039795;28;20057;-67
2022/05/19 02:45:38;;;;;;;50.88;36.90;;;;;;;-145.18;100.00;60484.78;5048542;28;20463;-67
2022/05/19 02:48:06;;;;;;;46.55;35.45;;;;;;;-145.18;100.00;60484.78;5037140;28;20553;-67
2022/05/19 02:50:32;;;;;;;48.08;36.53;;;;;;;-145.18;100.00;60484.78;5034809;28;20036;-67
2022/05/19 02:52:57;;;;;;;48.65;36.95;;;;;;;-145.18;100.00;60484.78;5044447;28;20036;-67
2022/05/19 02:55:23;;;;;;;48.17;35.92;;;;;;;-145.18;100.00;60484.78;5052570;28;20035;-67
2022/05/19 02:57:50;;;;;;;54.10;37.60;;;;;;;-145.18;100.00;60484.78;5040632;28;20063;-67
2022/05/19 03:00:22;;;;;;;51.17;36.80;;;;;;;-145.18;100.00;60484.78;5036778;28;20080;-67
2022/05/19 03:02:48;;;;;;;50.60;36.38;;;;;;;-145.18;100.00;60484.78;5039350;28;20568;-67
2022/05/19 03:05:17;;;;;;;55.33;38.53;;;;;;;-145.18;100.00;60484.78;5038216;28;20100;-68
2022/05/19 03:07:42;;;;;;;50.05;36.30;;;;;;;-145.18;100.00;60484.78;5036456;28;20104;-67
2022/05/19 03:10:08;;;;;;;48.58;36.03;;;;;;;-145.18;100.00;60484.78;5036581;28;20108;-67
2022/05/19 03:12:34;;;;;;;49.85;36.83;;;;;;;-145.18;100.00;60484.78;5033468;28;20115;-67
2022/05/19 03:14:59;;;;;;;47.67;35.38;;;;;;;-145.18;100.00;60484.78;5036747;28;20436;-67
2022/05/19 03:17:25;;;;;;;45.55;36.67;;;;;;;-145.18;100.00;60484.78;5036165;28;20021;-67
2022/05/19 03:19:54;;;;;;;43.28;34.65;;;;;;;-145.18;100.00;60484.78;5043027;28;20031;-67
2022/05/19 03:22:20;;;;;;;41.78;30.67;;;;;;;-145.18;100.00;60484.78;5039481;28;20029;-67
2022/05/19 03:24:45;;;;;;;38.80;28.50;;;;;;;-145.18;100.00;60484.78;5051625;28;20128;-67
2022/05/19 03:27:11;;;;;;;35.85;25.95;;;;;;;-145.18;100.00;60484.78;5045721;28;20041;-67
2022/05/19 03:29:37;;;;;;;33.03;25.30;;;;;;;-145.18;100.00;60484.78;5031884;28;20032;-67
2022/05/19 03:32:03;;;;;;;35.30;25.60;;;;;;;-145.18;100.00;60484.78;5042845;28;20135;-67
2022/05/19 03:34:28;;;;;;;35.13;25.42;;;;;;;-145.18;100.00;60484.78;5033317;28;20079;-67
2022/05/19 03:36:54;;;;;;;39.17;28.33;;;;;;;-145.18;100.00;60484.78;5047714;28;20020;-67
2022/05/19 03:39:19;;;;;;;38.55;27.15;;;;;;;-145.18;100.00;60484.78;5038429;28;20060;-67
2022/05/19 03:41:44;;;;;;;32.50;24.90;;;;;;;-145.18;100.00;60484.78;5042648;28;20362;-67
2022/05/19 03:44:10;;;;;;;28.48;19.10;;;;;;;-145.18;100.00;60484.78;5038448;28;20120;-67
2022/05/19 03:46:36;;;;;;;29.02;21.60;;;;;;;-145.18;100.00;60484.78;5035944;28;20104;-67
2022/05/19 03:49:01;;;;;;;21.20;14.95;;;;;;;-145.18;100.00;60484.78;5034817;28;20033;-67
2022/05/19 03:51:29;;;;;;;21.45;14.13;;;;;;;-145.18;100.00;60484.78;5033623;28;20091;-67
2022/05/19 03:53:55;;;;;;;21.67;13.65;;;;;;;-145.18;100.00;60484.78;5041673;28;20028;-67
2022/05/19 03:56:23;;;;;;;21.73;13.57;;;;;;;-145.18;100.00;60484.78;5047556;28;20036;-67
2022/05/19 03:58:49;;;;;;;17.33;11.18;;;;;;;-145.18;100.00;60484.78;5042452;28;20029;-67
2022/05/19 04:01:16;;;;;;;16.80;10.10;;;;;;;-145.18;100.00;60484.78;5041227;28;20079;-67
2022/05/19 04:03:42;;;;;;;17.50;10.27;;;;;;;-145.18;100.00;60484.78;5036753;28;20497;-69
2022/05/19 04:06:07;;;;;;;17.80;9.40;;;;;;;-145.18;100.00;60484.78;5040634;28;20067;-67
2022/05/19 04:08:33;;;;;;;19.13;9.98;;;;;;;-145.18;100.00;60484.78;5037262;28;20029;-67
2022/05/19 04:10:59;;;;;;;17.30;8.82;;;;;;;-145.18;100.00;60484.78;5031439;28;20053;-67
2022/05/19 04:13:24;;;;;;;11.18;8.15;;;;;;;-145.18;100.00;60484.78;5041906;28;20429;-67
2022/05/19 04:15:50;;;;;;;14.40;8.65;;;;;;;-145.18;100.00;60484.78;5037528;28;20048;-67
2022/05/19 04:18:16;;;;;;;13.77;8.27;;;;;;;-145.18;100.00;60484.78;5040948;28;20473;-67
2022/05/19 04:20:41;;;;;;;9.98;6.90;;;;;;;-145.18;100.00;60484.78;5043896;28;20057;-67
2022/05/19 04:23:07;;;;;;;30.30;7.97;;;;;;;-145.18;100.00;60484.78;5041147;28;20029;-67
2022/05/19 04:25:33;;;;;;;13.32;6.93;;;;;;;-145.18;100.00;60484.78;5044063;28;20029;-67
2022/05/19 04:27:59;;;;;;;9.82;6.50;;;;;;;-145.18;100.00;60484.78;5035427;28;20021;-67
2022/05/19 04:30:26;;;;;;;10.45;6.55;;;;;;;-145.18;100.00;60484.78;5033760;28;20029;-67
2022/05/19 04:32:51;;;;;;;10.20;6.28;;;;;;;-145.18;100.00;60484.78;5034580;28;20021;-67
2022/05/19 04:35:16;;;;;;;11.40;5.80;;;;;;;-145.18;100.00;60484.78;5034379;28;20024;-67
2022/05/19 04:37:43;;;;;;;9.75;5.93;;;;;;;-145.18;100.00;60484.78;5031582;28;20022;-68
2022/05/19 04:40:09;;;;;;;8.23;6.03;;;;;;;-145.18;100.00;60484.78;5030757;28;20029;-68
2022/05/19 04:42:35;;;;;;;8.23;5.50;;;;;;;-145.18;100.00;60484.78;5040820;28;20022;-67
2022/05/19 04:45:00;;;;;;;10.43;5.53;;;;;;;-145.18;100.00;60484.78;5040302;28;20038;-68
2022/05/19 04:47:26;;;;;;;13.13;5.80;;;;;;;-145.18;100.00;60484.78;5033903;28;20037;-68
2022/05/19 04:49:52;;;;;;;12.60;5.47;;;;;;;-145.18;100.00;60484.78;5029759;28;20017;-67
2022/05/19 04:52:17;;;;;;;7.15;5.25;;;;;;;-145.18;100.00;60484.78;5034612;28;20386;-67
2022/05/19 04:54:43;;;;;;;9.30;5.88;;;;;;;-145.18;100.00;60484.78;5045821;28;20029;-67
2022/05/19 04:57:10;;;;;;;8.75;5.82;;;;;;;-145.18;100.00;60484.78;5037015;28;20018;-67
2022/05/19 04:59:37;;;;;;;7.72;5.82;;;;;;;-145.18;100.00;60484.78;5037855;28;20466;-67
2022/05/19 05:02:03;;;;;;;8.52;5.85;;;;;;;-145.18;100.00;60484.78;5031524;28;20034;-68
2022/05/19 05:04:30;;;;;;;9.93;5.95;;;;;;;-145.18;100.00;60484.78;5042327;28;20087;-67
2022/05/19 05:06:56;;;;;;;9.23;6.35;;;;;;;-145.18;100.00;60484.78;5039018;28;20043;-68
2022/05/19 05:09:21;;;;;;;12.35;6.13;;;;;;;-145.18;100.00;60484.78;5035740;28;20029;-67
2022/05/19 05:11:47;;;;;;;11.00;6.00;;;;;;;-145.18;100.00;60484.78;5047677;28;20086;-67
2022/05/19 05:14:13;;;;;;;10.10;5.60;;;;;;;-145.18;100.00;60484.78;5038137;28;20052;-67
2022/05/19 05:16:39;;;;;;;8.23;6.15;;;;;;;-145.18;100.00;60484.78;5036398;28;20021;-67
2022/05/19 05:19:05;;;;;;;7.47;5.35;;;;;;;-145.18;100.00;60484.78;5034061;28;20060;-67
2022/05/19 05:21:30;;;;;;;8.30;5.40;;;;;;;-145.18;100.00;60484.78;5045706;28;20064;-68
2022/05/19 05:23:56;;;;;;;13.13;5.28;;;;;;;-145.18;100.00;60484.78;5041234;28;20380;-67
2022/05/19 05:26:22;;;;;;;8.80;5.07;;;;;;;-145.18;100.00;60484.78;5038446;28;20064;-68
2022/05/19 05:28:47;;;;;;;12.30;5.00;;;;;;;-145.18;100.00;60484.78;5040069;28;20083;-68
2022/05/19 05:31:13;;;;;;;8.38;4.80;;;;;;;-145.18;100.00;60484.78;5032686;28;20091;-67
2022/05/19 05:33:38;;;;;;;12.05;5.03;;;;;;;-145.18;100.00;60484.78;5039521;28;20033;-68
2022/05/19 05:36:04;;;;;;;7.70;4.55;;;;;;;-145.18;100.00;60484.78;5037593;28;20052;-68
2022/05/19 05:38:29;;;;;;;7.68;4.72;;;;;;;-145.18;100.00;60484.78;5046211;28;20116;-68
2022/05/19 05:40:55;;;;;;;8.25;4.75;;;;;;;-145.18;100.00;60484.78;5033590;28;20207;-68
2022/05/19 05:43:21;;;;;;;9.55;4.80;;;;;;;-145.18;100.00;60484.78;5027805;28;20047;-68
2022/05/19 05:45:48;;;;;;;9.70;4.80;;;;;;;-145.18;100.00;60484.78;5035359;28;20029;-68
2022/05/19 05:48:14;;;;;;;6.95;4.50;;;;;;;-145.18;100.00;60484.78;5034812;28;20053;-68
2022/05/19 05:50:40;;;;;;;7.57;4.00;;;;;;;-145.18;100.00;60484.78;5032548;28;20091;-68
2022/05/19 05:53:07;;;;;;;7.30;4.03;;;;;;;-145.18;100.00;60484.78;5034433;28;20064;-68
2022/05/19 05:55:33;;;;;;;7.90;4.10;;;;;;;-145.18;100.00;60484.78;5035802;28;20029;-68
2022/05/19 05:57:59;;;;;;;7.32;3.95;;;;;;;-145.18;100.00;60484.78;5033857;28;20025;-68
2022/05/19 06:00:25;;;;;;;5.85;3.40;;;;;;;-145.18;100.00;60484.78;5030725;28;20041;-68
2022/05/19 06:02:50;;;;;;;6.20;4.00;;;;;;;-145.18;100.00;60484.78;5041373;28;20034;-68
2022/05/19 06:05:17;;;;;;;5.68;3.80;;;;;;;-145.18;100.00;60484.78;5050882;28;20029;-68
2022/05/19 06:07:43;;;;;;;9.35;4.28;;;;;;;-145.18;100.00;60484.78;5050842;28;20032;-68
2022/05/19 06:10:11;;;;;;;6.70;3.50;;;;;;;-145.18;100.00;60484.78;5048232;28;20029;-68
2022/05/19 06:12:37;;;;;;;5.55;3.60;;;;;;;-145.18;100.00;60484.78;5048895;28;20551;-68
2022/05/19 06:15:03;;;;;;;7.55;3.30;;;;;;;-145.18;100.00;60484.78;5033789;28;20385;-68
2022/05/19 06:17:29;;;;;;;7.20;3.40;;;;;;;-145.18;100.00;60484.78;5033875;28;20028;-68
2022/05/19 06:19:54;;;;;;;9.63;3.42;;;;;;;-145.18;100.00;60484.78;5043696;28;20025;-68
2022/05/19 06:22:23;;;;;;;7.00;3.10;;;;;;;-145.18;100.00;60484.78;5053314;28;20436;-68
2022/05/19 06:24:50;;;;;;;6.25;3.08;;;;;;;-145.18;100.00;60484.78;5044102;28;20024;-68
2022/05/19 06:27:16;;;;;;;10.80;3.10;;;;;;;-145.18;100.00;60484.78;5052959;28;20048;-68
2022/05/19 06:29:41;;;;;;;4.50;2.83;;;;;;;-145.18;100.00;60484.78;5050142;28;20028;-68
2022/05/19 06:32:07;;;;;;;6.65;2.72;;;;;;;-145.18;100.00;60484.78;5051364;28;20065;-68
2022/05/19 06:34:32;;;;;;;4.65;2.90;;;;;;;-145.18;100.00;60484.78;5039026;28;20028;-68
2022/05/19 06:36:58;;;;;;;6.18;2.75;;;;;;;-145.18;100.00;60484.78;5049719;28;20451;-68
2022/05/19 06:39:23;;;;;;;8.05;2.72;;;;;;;-145.18;100.00;60484.78;5048314;28;20037;-68
2022/05/19 06:42:00;;;;;;;6.38;2.70;;;;;;;-145.18;100.00;60484.78;5033188;28;20040;-68
2022/05/19 06:44:31;;;;;;;6.65;2.65;;;;;;;-145.18;100.00;60484.78;5033973;28;20091;-68
2022/05/19 06:46:57;;;;;;;4.57;2.45;;;;;;;-145.18;100.00;60484.78;5044612;28;20478;-68
2022/05/19 06:49:23;;;;;;;7.30;2.90;;;;;;;-145.18;100.00;60484.78;5038436;28;20394;-68
2022/05/19 06:51:49;;;;;;;5.65;2.53;;;;;;;-145.18;100.00;60484.78;5041081;28;20028;-68
2022/05/19 06:54:14;;;;;;;9.48;2.28;;;;;;;-145.18;100.00;60484.78;5035801;28;20025;-68
2022/05/19 06:56:40;;;;;;;4.00;2.20;;;;;;;-145.18;100.00;60484.78;5042266;28;20477;-68
2022/05/19 06:59:07;;;;;;;8.13;2.30;;;;;;;-145.18;100.00;60484.78;5052528;28;20029;-68
2022/05/19 07:01:33;;;;;;;5.93;2.22;;;;;;;-145.18;100.00;60484.78;5040819;28;20075;-68
2022/05/19 07:03:58;;;;;;;6.82;2.00;;;;;;;-145.18;100.00;60484.78;5043558;28;20440;-68
2022/05/19 07:06:24;;;;;;;7.88;2.45;;;;;;;-145.18;100.00;60484.78;5033375;28;20025;-68
2022/05/19 07:08:50;;;;;;;6.40;2.42;;;;;;;-145.18;100.00;60484.78;5039216;28;20028;-67
2022/05/19 07:11:24;;;;;;;6.07;2.10;;;;;;;-145.18;100.00;60484.78;5035419;28;20036;-67
2022/05/19 07:13:54;;;;;;;6.35;2.50;;;;;;;-145.18;100.00;60484.78;5036360;28;20032;-68
2022/05/19 07:16:19;;;;;;;6.10;2.90;;;;;;;-145.18;100.00;60484.78;5051493;28;20020;-68
2022/05/19 07:18:45;;;;;;;5.28;2.38;;;;;;;-145.18;100.00;60484.78;5047676;28;20033;-68
2022/05/19 07:21:12;;;;;;;4.45;2.53;;;;;;;-145.18;100.00;60484.78;5047169;28;20454;-68
2022/05/19 07:23:37;;;;;;;4.82;2.50;;;;;;;-145.18;100.00;60484.78;5040170;28;20477;-68
2022/05/19 07:26:03;;;;;;;4.82;2.70;;;;;;;-145.18;100.00;60484.78;5042126;28;20060;-68
2022/05/19 07:28:29;;;;;;;6.43;2.50;;;;;;;-145.18;100.00;60484.78;5051032;28;20032;-68
2022/05/19 07:30:55;;;;;;;6.88;2.38;;;;;;;-145.18;100.00;60484.78;5051563;28;20639;-68
2022/05/19 07:33:20;;;;;;;5.28;2.20;;;;;;;-145.18;100.00;60484.78;5038908;28;20108;-68
2022/05/19 07:35:50;;;;;;;4.25;2.30;;;;;;;-145.18;100.00;60484.78;5036207;28;20029;-67
2022/05/19 07:38:16;;;;;;;8.68;2.17;;;;;;;-145.18;100.00;60484.78;5051087;28;20064;-67
2022/05/19 07:40:42;;;;;;;5.88;2.13;;;;;;;-145.18;100.00;60484.78;5046071;28;20099;-67
2022/05/19 07:45:52;;;;;;;5.53;2.22;;;;;;;-145.18;100.00;60484.78;5048591;28;20035;-68
2022/05/19 07:48:18;;;;;;;6.05;1.98;;;;;;;-145.18;100.00;60484.78;5042226;28;20646;-68
2022/05/19 07:50:43;;;;;;;5.15;2.03;;;;;;;-145.18;100.00;60484.78;5036547;28;20524;-67
2022/05/19 07:53:09;;;;;;;6.07;2.33;;;;;;;-145.18;100.00;60484.78;5039899;28;20497;-67
2022/05/19 07:55:34;;;;;;;5.28;2.10;;;;;;;-145.18;100.00;60484.78;5044350;28;20025;-68
2022/05/19 07:58:00;;;;;;;5.88;2.10;;;;;;;-145.18;100.00;60484.78;5049065;28;20041;-68
2022/05/19 08:00:26;;;;;;;4.95;2.20;;;;;;;-145.18;100.00;60484.78;5034785;28;20477;-68
2022/05/19 08:02:52;;;;;;;4.40;2.10;;;;;;;-145.18;100.00;60484.78;5043799;28;20021;-68
2022/05/19 08:05:17;;;;;;;4.30;1.90;;;;;;;-145.18;100.00;60484.78;5031201;28;20029;-68
2022/05/19 08:07:42;;;;;;;7.75;2.47;;;;;;;-145.18;100.00;60484.78;5036636;28;20025;-68
2022/05/19 08:10:20;;;;;;;4.72;2.05;;;;;;;-145.18;100.00;60484.78;5032615;28;20032;-68
2022/05/19 08:15:36;;;;;;;3.67;1.83;;;;;;;-145.18;100.00;60484.78;5051570;28;20043;-68
2022/05/19 08:18:12;;;;;;;6.80;1.90;;;;;;;-145.18;100.00;60484.78;5043051;28;20025;-68
2022/05/19 08:20:43;;;;;;;4.68;2.00;;;;;;;-145.18;100.00;60484.78;5031935;28;20497;-67
2022/05/19 08:23:13;;;;;;;4.60;1.90;;;;;;;-145.18;100.00;60484.78;5031606;28;20481;-68
2022/05/19 08:25:39;;;;;;;5.00;2.07;;;;;;;-145.18;100.00;60484.78;5031437;28;20033;-67
2022/05/19 08:28:05;;;;;;;4.75;1.95;;;;;;;-145.18;100.00;60484.78;5042027;28;20021;-68
2022/05/19 08:30:31;;;;;;;4.28;1.90;;;;;;;-145.18;100.00;60484.78;5039711;28;20033;-68
2022/05/19 08:32:57;;;;;;;4.63;2.22;;;;;;;-145.18;100.00;60484.78;5042817;28;20035;-68
2022/05/19 08:35:23;;;;;;;4.57;2.00;;;;;;;-145.18;100.00;60484.78;5031338;28;20061;-68
2022/05/19 08:37:49;;;;;;;4.82;1.90;;;;;;;-145.18;100.00;60484.78;5033747;28;20481;-68
2022/05/19 08:40:16;;;;;;;5.10;1.90;;;;;;;-145.18;100.00;60484.78;5036176;28;20035;-68
2022/05/19 08:42:47;;;;;;;4.40;1.90;;;;;;;-145.18;100.00;60484.78;5050151;28;20392;-68
2022/05/19 08:45:34;;;;;;;4.13;1.63;;;;;;;-145.18;100.00;60484.78;5050025;28;20538;-68
2022/05/19 08:48:16;;;;;;;3.80;1.75;;;;;;;-145.18;100.00;60484.78;5050239;28;20021;-68
2022/05/19 08:50:51;;;;;;;4.68;1.70;;;;;;;-145.18;100.00;60484.78;5043459;28;20021;-68
2022/05/19 08:53:16;;;;;;;5.05;1.80;;;;;;;-145.18;100.00;60484.78;5035301;28;20103;-69
2022/05/19 08:55:45;;;;;;;4.63;1.73;;;;;;;-145.18;100.00;60484.78;5049305;28;20064;-68
2022/05/19 08:58:41;;;;;;;6.57;2.00;;;;;;;-145.18;100.00;60484.78;5038983;28;20027;-68
2022/05/19 09:01:28;;;;;;;5.28;1.90;;;;;;;-145.18;100.00;60484.78;5035461;28;20091;-68
2022/05/19 09:04:05;;;;;;;5.60;2.00;;;;;;;-145.18;100.00;60484.78;5052970;28;20056;-68
2022/05/19 09:09:54;;;;;;;6.22;1.70;;;;;;;-145.18;100.00;60484.78;5035808;28;20056;-68
2022/05/19 09:12:22;;;;;;;4.50;1.77;;;;;;;-145.18;100.00;60484.78;5050666;28;20075;-68
2022/05/19 09:14:48;;;;;;;4.55;1.80;;;;;;;-145.18;100.00;60484.78;5041893;28;20028;-68
2022/05/19 09:17:14;;;;;;;4.43;1.73;;;;;;;-145.18;100.00;60484.78;5054002;28;20027;-68
2022/05/19 09:19:52;;;;;;;4.03;1.67;;;;;;;-145.18;100.00;60484.78;5044695;28;20028;-69
2022/05/19 09:22:21;;;;;;;3.55;1.40;;;;;;;-145.18;100.00;60484.78;5040937;28;20083;-69
2022/05/19 09:24:51;;;;;;;7.20;1.70;;;;;;;-145.18;100.00;60484.78;5038799;28;20036;-68
2022/05/19 09:27:19;;;;;;;4.28;1.77;;;;;;;-145.18;100.00;60484.78;5046565;28;20124;-68
2022/05/19 09:29:53;;;;;;;5.88;1.73;;;;;;;-145.18;100.00;60484.78;5046912;28;20465;-68
2022/05/19 09:32:35;;;;;;;6.70;1.70;;;;;;;-145.18;100.00;60484.78;5049111;28;20036;-68
2022/05/19 09:35:06;;;;;;;5.72;1.98;;;;;;;-145.18;100.00;60484.78;5044970;28;20102;-68
2022/05/19 09:37:40;;;;;;;4.78;1.80;;;;;;;-145.18;100.00;60484.78;5048375;28;20099;-68
2022/05/19 09:40:11;;;;;;;5.15;1.90;;;;;;;-145.18;100.00;60484.78;5039029;28;20028;-68
2022/05/19 09:42:48;;;;;;;3.33;1.50;;;;;;;-145.18;100.00;60484.78;5047374;28;20477;-69
2022/05/19 09:45:14;;;;;;;4.55;1.70;;;;;;;-145.18;100.00;60484.78;5034220;28;20030;-69
2022/05/19 09:47:45;;;;;;;4.47;1.70;;;;;;;-145.18;100.00;60484.78;5033586;28;20469;-69
2022/05/19 09:50:17;;;;;;;4.60;1.63;;;;;;;-145.18;100.00;60484.78;5034389;28;20033;-68
2022/05/19 09:52:45;;;;;;;4.18;1.70;;;;;;;-145.18;100.00;60484.78;5047442;28;20025;-69
2022/05/19 09:55:15;;;;;;;3.47;1.45;;;;;;;-145.18;100.00;60484.78;5044684;28;20086;-69
2022/05/19 09:57:43;;;;;;;3.53;1.45;;;;;;;-145.18;100.00;60484.78;5047050;28;20033;-68
2022/05/19 10:00:18;;;;;;;5.53;2.10;;;;;;;-145.18;100.00;60484.78;5053252;28;20029;-69
2022/05/19 10:02:49;;;;;;;5.55;1.58;;;;;;;-145.18;100.00;60484.78;5053266;28;20036;-68
2022/05/19 10:05:36;;;;;;;5.55;1.73;;;;;;;-145.18;100.00;60484.78;5032747;28;20029;-68
2022/05/19 10:08:12;;;;;;;4.28;1.63;;;;;;;-145.18;100.00;60484.78;5049025;28;20044;-69
2022/05/19 10:10:47;;;;;;;3.33;1.70;;;;;;;-145.18;100.00;60484.78;5036480;28;20501;-68
2022/05/19 10:13:16;;;;;;;8.23;1.80;;;;;;;-145.18;100.00;60484.78;5035643;28;20037;-69
2022/05/19 10:15:52;;;;;;;5.22;1.80;;;;;;;-145.18;100.00;60484.78;5034647;28;20109;-68
2022/05/19 10:18:30;;;;;;;7.15;2.30;;;;;;;-145.18;100.00;60484.78;5033243;28;20029;-68
2022/05/19 10:21:15;;;;;;;6.85;1.80;;;;;;;-145.18;100.00;60484.78;5033476;28;20037;-68
2022/05/19 10:23:58;;;;;;;5.28;2.10;;;;;;;-145.18;100.00;60484.78;5033274;28;20097;-68
2022/05/19 10:26:50;;;;;;;3.35;1.80;;;;;;;-145.18;100.00;60484.78;5033342;28;20032;-68
2022/05/19 10:32:37;;;;;;;3.97;2.13;;;;;;;-145.18;100.00;60484.78;5032915;28;20091;-68
2022/05/19 10:35:21;;;;;;;7.65;2.00;;;;;;;-145.18;100.00;60484.78;5033099;28;20127;-68
2022/05/19 10:38:18;;;;;;;4.65;2.10;;;;;;;-145.18;100.00;60484.78;5033264;28;20388;-68
2022/05/19 10:41:07;;;;;;;9.32;1.88;;;;;;;-145.18;100.00;60484.78;5033302;28;20588;-68
2022/05/19 10:43:33;;;;;;;4.82;2.10;;;;;;;-145.18;100.00;60484.78;5041730;28;20079;-68
2022/05/19 10:45:59;;;;;;;7.55;1.92;;;;;;;-145.18;100.00;60484.78;5046489;28;20482;-68
2022/05/19 10:48:53;;;;;;;5.82;1.83;;;;;;;-145.18;100.00;60484.78;5048122;28;20074;-68
2022/05/19 10:51:35;;;;;;;7.35;1.90;;;;;;;-145.18;100.00;60484.78;5040376;28;20041;-68
2022/05/19 10:54:19;;;;;;;6.85;1.80;;;;;;;-145.18;100.00;60484.78;5042511;28;20124;-68
2022/05/19 10:56:59;;;;;;;4.32;1.80;;;;;;;-145.18;100.00;60484.78;5047504;28;20021;-68
2022/05/19 10:59:45;;;;;;;7.43;1.90;;;;;;;-145.18;100.00;60484.78;5039705;28;20037;-68
2022/05/19 11:02:48;;;;;;;4.70;1.63;;;;;;;-145.18;100.00;60484.78;5037065;28;20450;-68
2022/05/19 11:05:20;;;;;;;7.47;1.77;;;;;;;-145.18;100.00;60484.78;5032097;28;20029;-68
2022/05/19 11:07:54;;;;;;;4.25;1.60;;;;;;;-145.18;100.00;60484.78;5040750;28;20431;-68
2022/05/19 11:10:29;;;;;;;5.22;1.60;;;;;;;-145.18;100.00;60484.78;5051507;28;20484;-68
2022/05/19 11:13:00;;;;;;;3.08;1.50;;;;;;;-145.18;100.00;60484.78;5047372;28;20017;-68
2022/05/19 11:15:47;;;;;;;5.00;1.50;;;;;;;-145.18;100.00;60484.78;5052663;28;20071;-68
2022/05/19 11:18:21;;;;;;;3.97;1.60;;;;;;;-145.18;100.00;60484.78;5039127;28;20108;-68
2022/05/19 11:21:10;;;;;;;7.15;2.25;;;;;;;-145.18;100.00;60484.78;5044462;28;20037;-68
2022/05/19 11:24:02;;;;;;;4.72;1.75;;;;;;;-145.18;100.00;60484.78;5032080;28;20030;-69
2022/05/19 11:26:49;;;;;;;6.85;1.75;;;;;;;-145.18;100.00;60484.78;5032329;28;20021;-69
2022/05/19 11:29:18;;;;;;;3.75;2.03;;;;;;;-145.18;100.00;60484.78;5032074;28;20366;-68